首页
METAR-TAF:

METAR-TAF

机场 :

Gallup, 新墨西哥州, 美国

纬度: 35-30-40N, 经度: 108-47-22W, 海拔: 1973米

当前天气观测

该预报发布于1小时和7分钟前的12:53 UTC
静风
温度 5°C
湿度 52%
气压 1024 hPa
能見度: 16.1公里
天空无云

METAR: KGUP 271253Z AUTO 00000KT 10SM CLR 05/M04 A3025 RMK AO2 SLP134 T00501044

时间: 08:00 (14:00 UTC)

预报

该预报发布于2小时和20分钟前的11:40 UTC
预报有效从27日的 12点(UTC)到 28日的 12点(UTC)
风速6节,风向多变
能見度: 10公里
天空无云
从 27日的 1800点(UTC)
风速10节,风向西转西南
能見度: 10公里
少量云层高于25000英尺
短暂存在
从 27日的 20点(UTC)到 27日的 24点(UTC)
风速10节,风向西转西南,有时为20节阵风
从 28日的 0200点(UTC)
风速4节,风向多变
能見度: 10公里
散云层高于25000英尺

TAF: KGUP 271140Z 2712/2812 VRB06KT P6SM SKC FM271800 24010KT P6SM FEW250 TEMPO 2720/2724 24010G20KT FM280200 VRB04KT P6SM SCT250

超过4000个机场的气象观测和天气预报(METAR&TAF报告)。

可查询的气象台以黄色和红色小点在地图上表示。

将鼠标移到小点上方,可查看气象台名称。

然后点击查看天气观测和预报。

如需切换地图:点击带黑十字的绿色按钮放大地图;点击带横线的绿色按钮缩小地图;或者点击绿色箭头查看邻近地区的地图。


METAR-TAF: